sensor_id;sensor_type;location;lat;lon;timestamp;P1;durP1;ratioP1;P2;durP2;ratioP2
16577;SDS011;8401;52.528;13.340;2022-10-23T00:01:23;9.30;;;5.40;;
16577;SDS011;8401;52.528;13.340;2022-10-23T00:03:52;8.17;;;5.43;;
16577;SDS011;8401;52.528;13.340;2022-10-23T00:06:18;6.90;;;5.30;;
16577;SDS011;8401;52.528;13.340;2022-10-23T00:08:45;9.83;;;5.27;;
16577;SDS011;8401;52.528;13.340;2022-10-23T00:11:12;8.87;;;5.40;;
16577;SDS011;8401;52.528;13.340;2022-10-23T00:13:40;8.77;;;5.40;;
16577;SDS011;8401;52.528;13.340;2022-10-23T00:16:06;8.50;;;5.90;;
16577;SDS011;8401;52.528;13.340;2022-10-23T00:18:32;7.13;;;5.20;;
16577;SDS011;8401;52.528;13.340;2022-10-23T00:20:58;9.00;;;6.23;;
16577;SDS011;8401;52.528;13.340;2022-10-23T00:23:24;7.80;;;5.30;;
16577;SDS011;8401;52.528;13.340;2022-10-23T00:25:50;10.07;;;5.70;;
16577;SDS011;8401;52.528;13.340;2022-10-23T00:28:15;8.13;;;5.67;;
16577;SDS011;8401;52.528;13.340;2022-10-23T00:30:41;7.37;;;5.97;;
16577;SDS011;8401;52.528;13.340;2022-10-23T00:33:07;8.07;;;5.57;;
16577;SDS011;8401;52.528;13.340;2022-10-23T00:35:34;9.23;;;5.63;;
16577;SDS011;8401;52.528;13.340;2022-10-23T00:38:03;7.70;;;5.07;;
16577;SDS011;8401;52.528;13.340;2022-10-23T00:40:28;8.77;;;5.40;;
16577;SDS011;8401;52.528;13.340;2022-10-23T00:42:54;7.60;;;5.53;;
16577;SDS011;8401;52.528;13.340;2022-10-23T00:45:27;9.53;;;5.27;;
16577;SDS011;8401;52.528;13.340;2022-10-23T00:47:57;6.97;;;5.10;;
16577;SDS011;8401;52.528;13.340;2022-10-23T00:50:27;7.27;;;5.43;;
16577;SDS011;8401;52.528;13.340;2022-10-23T00:52:55;7.90;;;5.60;;
16577;SDS011;8401;52.528;13.340;2022-10-23T00:55:23;6.57;;;5.13;;
16577;SDS011;8401;52.528;13.340;2022-10-23T00:57:50;7.37;;;5.23;;
16577;SDS011;8401;52.528;13.340;2022-10-23T01:00:19;9.63;;;5.37;;
16577;SDS011;8401;52.528;13.340;2022-10-23T01:02:55;10.20;;;4.90;;
16577;SDS011;8401;52.528;13.340;2022-10-23T01:05:24;6.90;;;4.93;;
16577;SDS011;8401;52.528;13.340;2022-10-23T01:08:05;5.23;;;4.07;;
16577;SDS011;8401;52.528;13.340;2022-10-23T01:10:44;7.40;;;4.57;;
16577;SDS011;8401;52.528;13.340;2022-10-23T01:13:14;5.20;;;4.27;;
16577;SDS011;8401;52.528;13.340;2022-10-23T01:16:04;6.27;;;4.70;;
16577;SDS011;8401;52.528;13.340;2022-10-23T01:21:35;8.00;;;4.60;;
16577;SDS011;8401;52.528;13.340;2022-10-23T01:27:25;8.40;;;4.60;;
16577;SDS011;8401;52.528;13.340;2022-10-23T01:32:33;11.37;;;4.60;;
16577;SDS011;8401;52.528;13.340;2022-10-23T01:35:35;7.00;;;4.20;;
16577;SDS011;8401;52.528;13.340;2022-10-23T01:38:13;8.87;;;4.60;;
16577;SDS011;8401;52.528;13.340;2022-10-23T01:41:12;13.40;;;4.90;;
16577;SDS011;8401;52.528;13.340;2022-10-23T01:43:46;8.60;;;4.53;;
16577;SDS011;8401;52.528;13.340;2022-10-23T01:46:19;11.37;;;5.00;;
16577;SDS011;8401;52.528;13.340;2022-10-23T01:48:51;8.83;;;5.27;;
16577;SDS011;8401;52.528;13.340;2022-10-23T01:51:19;7.30;;;4.70;;
16577;SDS011;8401;52.528;13.340;2022-10-23T01:53:48;6.07;;;4.57;;
16577;SDS011;8401;52.528;13.340;2022-10-23T01:56:20;7.67;;;4.60;;
16577;SDS011;8401;52.528;13.340;2022-10-23T01:58:50;7.07;;;5.17;;
16577;SDS011;8401;52.528;13.340;2022-10-23T02:01:18;7.90;;;5.20;;
16577;SDS011;8401;52.528;13.340;2022-10-23T02:03:47;7.33;;;5.03;;
16577;SDS011;8401;52.528;13.340;2022-10-23T02:06:14;7.57;;;5.23;;
16577;SDS011;8401;52.528;13.340;2022-10-23T02:08:39;9.33;;;5.50;;
16577;SDS011;8401;52.528;13.340;2022-10-23T02:11:12;6.97;;;5.00;;
16577;SDS011;8401;52.528;13.340;2022-10-23T02:16:22;7.77;;;5.40;;
16577;SDS011;8401;52.528;13.340;2022-10-23T02:21:52;10.30;;;5.20;;
16577;SDS011;8401;52.528;13.340;2022-10-23T02:24:21;9.43;;;4.97;;
16577;SDS011;8401;52.528;13.340;2022-10-23T02:27:14;9.03;;;5.77;;
16577;SDS011;8401;52.528;13.340;2022-10-23T02:29:44;8.57;;;4.90;;
16577;SDS011;8401;52.528;13.340;2022-10-23T02:32:15;8.47;;;5.53;;
16577;SDS011;8401;52.528;13.340;2022-10-23T02:34:43;8.13;;;5.60;;
16577;SDS011;8401;52.528;13.340;2022-10-23T02:37:09;5.60;;;5.00;;
16577;SDS011;8401;52.528;13.340;2022-10-23T02:39:35;9.60;;;5.87;;
16577;SDS011;8401;52.528;13.340;2022-10-23T02:42:21;7.07;;;5.00;;
16577;SDS011;8401;52.528;13.340;2022-10-23T02:47:54;8.93;;;5.47;;
16577;SDS011;8401;52.528;13.340;2022-10-23T03:01:10;10.37;;;5.33;;
16577;SDS011;8401;52.528;13.340;2022-10-23T03:03:46;10.13;;;6.10;;
16577;SDS011;8401;52.528;13.340;2022-10-23T03:06:19;9.83;;;5.27;;
16577;SDS011;8401;52.528;13.340;2022-10-23T03:08:52;8.53;;;5.77;;
16577;SDS011;8401;52.528;13.340;2022-10-23T03:11:25;7.80;;;5.60;;
16577;SDS011;8401;52.528;13.340;2022-10-23T03:13:51;9.57;;;5.77;;
16577;SDS011;8401;52.528;13.340;2022-10-23T03:16:17;9.17;;;6.00;;
16577;SDS011;8401;52.528;13.340;2022-10-23T03:18:42;11.13;;;5.90;;
16577;SDS011;8401;52.528;13.340;2022-10-23T03:21:08;8.83;;;5.93;;
16577;SDS011;8401;52.528;13.340;2022-10-23T03:23:33;6.97;;;5.37;;
16577;SDS011;8401;52.528;13.340;2022-10-23T03:25:59;11.63;;;5.63;;
16577;SDS011;8401;52.528;13.340;2022-10-23T03:28:24;8.33;;;5.63;;
16577;SDS011;8401;52.528;13.340;2022-10-23T03:30:50;10.47;;;5.73;;
16577;SDS011;8401;52.528;13.340;2022-10-23T03:33:16;10.93;;;5.63;;
16577;SDS011;8401;52.528;13.340;2022-10-23T03:35:42;8.77;;;5.73;;
16577;SDS011;8401;52.528;13.340;2022-10-23T03:38:08;12.47;;;6.73;;
16577;SDS011;8401;52.528;13.340;2022-10-23T03:40:33;10.57;;;5.50;;
16577;SDS011;8401;52.528;13.340;2022-10-23T03:42:59;10.43;;;6.20;;
16577;SDS011;8401;52.528;13.340;2022-10-23T03:45:24;7.90;;;5.80;;
16577;SDS011;8401;52.528;13.340;2022-10-23T03:47:50;15.07;;;6.47;;
16577;SDS011;8401;52.528;13.340;2022-10-23T03:50:16;7.30;;;6.10;;
16577;SDS011;8401;52.528;13.340;2022-10-23T03:52:43;8.40;;;6.10;;
16577;SDS011;8401;52.528;13.340;2022-10-23T03:55:08;8.63;;;5.40;;
16577;SDS011;8401;52.528;13.340;2022-10-23T03:57:34;11.03;;;5.80;;
16577;SDS011;8401;52.528;13.340;2022-10-23T04:00:00;10.43;;;5.97;;
16577;SDS011;8401;52.528;13.340;2022-10-23T04:02:26;8.97;;;6.07;;
16577;SDS011;8401;52.528;13.340;2022-10-23T04:04:51;10.90;;;6.77;;
16577;SDS011;8401;52.528;13.340;2022-10-23T04:07:18;9.20;;;5.70;;
16577;SDS011;8401;52.528;13.340;2022-10-23T04:09:43;8.47;;;5.97;;
16577;SDS011;8401;52.528;13.340;2022-10-23T04:12:09;8.70;;;5.80;;
16577;SDS011;8401;52.528;13.340;2022-10-23T04:14:34;12.83;;;6.07;;
16577;SDS011;8401;52.528;13.340;2022-10-23T04:17:00;9.13;;;6.10;;
16577;SDS011;8401;52.528;13.340;2022-10-23T04:19:26;7.80;;;5.70;;
16577;SDS011;8401;52.528;13.340;2022-10-23T04:21:51;10.33;;;6.33;;
16577;SDS011;8401;52.528;13.340;2022-10-23T04:24:17;11.13;;;6.13;;
16577;SDS011;8401;52.528;13.340;2022-10-23T04:26:42;14.30;;;6.17;;
16577;SDS011;8401;52.528;13.340;2022-10-23T04:29:08;10.20;;;6.00;;
16577;SDS011;8401;52.528;13.340;2022-10-23T04:31:33;10.80;;;5.63;;
16577;SDS011;8401;52.528;13.340;2022-10-23T04:33:59;8.10;;;5.90;;
16577;SDS011;8401;52.528;13.340;2022-10-23T04:36:24;10.23;;;6.63;;
16577;SDS011;8401;52.528;13.340;2022-10-23T04:38:50;10.30;;;6.43;;
16577;SDS011;8401;52.528;13.340;2022-10-23T04:41:17;9.17;;;6.00;;
16577;SDS011;8401;52.528;13.340;2022-10-23T04:43:42;9.80;;;6.50;;
16577;SDS011;8401;52.528;13.340;2022-10-23T04:46:08;10.13;;;6.90;;
16577;SDS011;8401;52.528;13.340;2022-10-23T04:48:34;15.43;;;7.00;;
16577;SDS011;8401;52.528;13.340;2022-10-23T04:51:00;7.40;;;5.80;;
16577;SDS011;8401;52.528;13.340;2022-10-23T04:53:27;12.83;;;6.60;;
16577;SDS011;8401;52.528;13.340;2022-10-23T04:55:55;12.93;;;6.67;;
16577;SDS011;8401;52.528;13.340;2022-10-23T04:58:22;12.27;;;6.63;;
16577;SDS011;8401;52.528;13.340;2022-10-23T05:00:49;11.53;;;6.50;;
16577;SDS011;8401;52.528;13.340;2022-10-23T05:03:15;9.37;;;6.70;;
16577;SDS011;8401;52.528;13.340;2022-10-23T05:05:42;11.40;;;6.50;;
16577;SDS011;8401;52.528;13.340;2022-10-23T05:08:08;7.27;;;5.83;;
16577;SDS011;8401;52.528;13.340;2022-10-23T05:10:34;10.50;;;6.47;;
16577;SDS011;8401;52.528;13.340;2022-10-23T05:13:00;10.77;;;6.07;;
16577;SDS011;8401;52.528;13.340;2022-10-23T05:15:26;9.70;;;6.40;;
16577;SDS011;8401;52.528;13.340;2022-10-23T05:17:54;10.83;;;6.73;;
16577;SDS011;8401;52.528;13.340;2022-10-23T05:20:24;14.17;;;7.20;;
16577;SDS011;8401;52.528;13.340;2022-10-23T05:22:53;7.40;;;6.37;;
16577;SDS011;8401;52.528;13.340;2022-10-23T05:25:21;9.33;;;6.80;;
16577;SDS011;8401;52.528;13.340;2022-10-23T05:27:47;11.47;;;7.30;;
16577;SDS011;8401;52.528;13.340;2022-10-23T05:30:12;8.70;;;6.53;;
16577;SDS011;8401;52.528;13.340;2022-10-23T05:32:38;10.63;;;6.60;;
16577;SDS011;8401;52.528;13.340;2022-10-23T05:35:08;10.37;;;6.27;;
16577;SDS011;8401;52.528;13.340;2022-10-23T05:37:41;11.43;;;7.23;;
16577;SDS011;8401;52.528;13.340;2022-10-23T05:40:09;14.13;;;7.47;;
16577;SDS011;8401;52.528;13.340;2022-10-23T05:42:35;11.97;;;7.07;;
16577;SDS011;8401;52.528;13.340;2022-10-23T05:45:01;9.27;;;6.73;;
16577;SDS011;8401;52.528;13.340;2022-10-23T05:47:26;9.47;;;6.50;;
16577;SDS011;8401;52.528;13.340;2022-10-23T05:49:52;10.73;;;6.60;;
16577;SDS011;8401;52.528;13.340;2022-10-23T05:52:17;8.10;;;6.40;;
16577;SDS011;8401;52.528;13.340;2022-10-23T05:54:44;19.47;;;7.03;;
16577;SDS011;8401;52.528;13.340;2022-10-23T05:57:09;11.80;;;7.20;;
16577;SDS011;8401;52.528;13.340;2022-10-23T05:59:35;11.73;;;7.37;;
16577;SDS011;8401;52.528;13.340;2022-10-23T06:02:01;11.50;;;7.37;;
16577;SDS011;8401;52.528;13.340;2022-10-23T06:04:26;10.10;;;7.13;;
16577;SDS011;8401;52.528;13.340;2022-10-23T06:06:52;9.03;;;6.37;;
16577;SDS011;8401;52.528;13.340;2022-10-23T06:09:17;11.70;;;6.73;;
16577;SDS011;8401;52.528;13.340;2022-10-23T06:11:43;11.57;;;6.70;;
16577;SDS011;8401;52.528;13.340;2022-10-23T06:14:09;12.63;;;6.77;;
16577;SDS011;8401;52.528;13.340;2022-10-23T06:16:34;9.97;;;7.10;;
16577;SDS011;8401;52.528;13.340;2022-10-23T06:19:00;11.67;;;7.10;;
16577;SDS011;8401;52.528;13.340;2022-10-23T06:21:26;11.93;;;7.43;;
16577;SDS011;8401;52.528;13.340;2022-10-23T06:23:51;10.30;;;7.37;;
16577;SDS011;8401;52.528;13.340;2022-10-23T06:26:17;10.17;;;6.70;;
16577;SDS011;8401;52.528;13.340;2022-10-23T06:28:43;10.97;;;7.03;;
16577;SDS011;8401;52.528;13.340;2022-10-23T06:31:10;13.10;;;6.70;;
16577;SDS011;8401;52.528;13.340;2022-10-23T06:33:37;9.20;;;7.10;;
16577;SDS011;8401;52.528;13.340;2022-10-23T06:36:03;9.50;;;7.17;;
16577;SDS011;8401;52.528;13.340;2022-10-23T06:38:29;11.30;;;7.10;;
16577;SDS011;8401;52.528;13.340;2022-10-23T06:41:00;13.80;;;7.73;;
16577;SDS011;8401;52.528;13.340;2022-10-23T06:43:27;12.10;;;7.53;;
16577;SDS011;8401;52.528;13.340;2022-10-23T06:45:53;14.10;;;7.33;;
16577;SDS011;8401;52.528;13.340;2022-10-23T06:48:18;12.57;;;7.10;;
16577;SDS011;8401;52.528;13.340;2022-10-23T06:50:44;10.40;;;7.27;;
16577;SDS011;8401;52.528;13.340;2022-10-23T06:53:10;8.60;;;6.70;;
16577;SDS011;8401;52.528;13.340;2022-10-23T06:55:36;11.90;;;7.37;;
16577;SDS011;8401;52.528;13.340;2022-10-23T06:58:03;9.73;;;6.73;;
16577;SDS011;8401;52.528;13.340;2022-10-23T07:00:34;11.53;;;7.00;;
16577;SDS011;8401;52.528;13.340;2022-10-23T07:03:01;10.40;;;7.37;;
16577;SDS011;8401;52.528;13.340;2022-10-23T07:05:27;11.90;;;7.63;;
16577;SDS011;8401;52.528;13.340;2022-10-23T07:07:53;13.03;;;7.93;;
16577;SDS011;8401;52.528;13.340;2022-10-23T07:10:18;14.37;;;9.30;;
16577;SDS011;8401;52.528;13.340;2022-10-23T07:12:44;15.40;;;7.90;;
16577;SDS011;8401;52.528;13.340;2022-10-23T07:15:11;15.17;;;8.63;;
16577;SDS011;8401;52.528;13.340;2022-10-23T07:17:37;9.83;;;7.80;;
16577;SDS011;8401;52.528;13.340;2022-10-23T07:20:02;11.33;;;8.17;;
16577;SDS011;8401;52.528;13.340;2022-10-23T07:22:28;12.57;;;9.30;;
16577;SDS011;8401;52.528;13.340;2022-10-23T07:24:54;13.90;;;8.50;;
16577;SDS011;8401;52.528;13.340;2022-10-23T07:27:19;11.23;;;8.10;;
16577;SDS011;8401;52.528;13.340;2022-10-23T07:29:48;12.30;;;8.00;;
16577;SDS011;8401;52.528;13.340;2022-10-23T07:32:14;10.50;;;8.37;;
16577;SDS011;8401;52.528;13.340;2022-10-23T07:34:40;9.47;;;7.43;;
16577;SDS011;8401;52.528;13.340;2022-10-23T07:37:05;8.40;;;7.00;;
16577;SDS011;8401;52.528;13.340;2022-10-23T07:39:31;11.90;;;8.27;;
16577;SDS011;8401;52.528;13.340;2022-10-23T07:41:56;13.50;;;9.10;;
16577;SDS011;8401;52.528;13.340;2022-10-23T07:44:22;10.60;;;8.07;;
16577;SDS011;8401;52.528;13.340;2022-10-23T07:46:48;10.23;;;7.67;;
16577;SDS011;8401;52.528;13.340;2022-10-23T07:49:13;11.13;;;8.20;;
16577;SDS011;8401;52.528;13.340;2022-10-23T07:51:39;9.40;;;7.03;;
16577;SDS011;8401;52.528;13.340;2022-10-23T07:54:05;12.67;;;7.80;;
16577;SDS011;8401;52.528;13.340;2022-10-23T07:56:31;14.27;;;7.10;;
16577;SDS011;8401;52.528;13.340;2022-10-23T07:58:57;16.27;;;8.80;;
16577;SDS011;8401;52.528;13.340;2022-10-23T08:01:33;12.07;;;8.13;;
16577;SDS011;8401;52.528;13.340;2022-10-23T08:04:01;10.40;;;7.93;;
16577;SDS011;8401;52.528;13.340;2022-10-23T08:06:28;10.17;;;6.90;;
16577;SDS011;8401;52.528;13.340;2022-10-23T08:08:53;11.00;;;7.53;;
16577;SDS011;8401;52.528;13.340;2022-10-23T08:11:20;12.33;;;9.27;;
16577;SDS011;8401;52.528;13.340;2022-10-23T08:13:51;12.57;;;8.97;;
16577;SDS011;8401;52.528;13.340;2022-10-23T08:16:18;12.93;;;7.63;;
16577;SDS011;8401;52.528;13.340;2022-10-23T08:18:43;8.40;;;7.23;;
16577;SDS011;8401;52.528;13.340;2022-10-23T08:21:09;11.67;;;8.03;;
16577;SDS011;8401;52.528;13.340;2022-10-23T08:23:35;11.37;;;7.70;;
16577;SDS011;8401;52.528;13.340;2022-10-23T08:26:02;12.87;;;7.97;;
16577;SDS011;8401;52.528;13.340;2022-10-23T08:28:29;10.70;;;7.70;;
16577;SDS011;8401;52.528;13.340;2022-10-23T08:30:56;8.57;;;6.77;;
16577;SDS011;8401;52.528;13.340;2022-10-23T08:33:21;8.67;;;6.63;;
16577;SDS011;8401;52.528;13.340;2022-10-23T08:35:48;10.03;;;6.70;;
16577;SDS011;8401;52.528;13.340;2022-10-23T08:38:14;7.10;;;6.10;;
16577;SDS011;8401;52.528;13.340;2022-10-23T08:40:46;8.27;;;5.73;;
16577;SDS011;8401;52.528;13.340;2022-10-23T08:45:58;10.00;;;6.20;;
16577;SDS011;8401;52.528;13.340;2022-10-23T08:51:24;6.47;;;4.60;;
16577;SDS011;8401;52.528;13.340;2022-10-23T08:54:05;10.13;;;6.17;;
16577;SDS011;8401;52.528;13.340;2022-10-23T08:56:38;8.07;;;5.53;;
16577;SDS011;8401;52.528;13.340;2022-10-23T09:01:51;5.50;;;4.40;;
16577;SDS011;8401;52.528;13.340;2022-10-23T09:04:23;7.77;;;5.13;;
16577;SDS011;8401;52.528;13.340;2022-10-23T09:12:06;11.13;;;4.95;;
16577;SDS011;8401;52.528;13.340;2022-10-23T09:17:37;8.95;;;4.82;;
16577;SDS011;8401;52.528;13.340;2022-10-23T09:22:57;6.80;;;3.78;;
16577;SDS011;8401;52.528;13.340;2022-10-23T09:25:25;9.15;;;3.97;;
16577;SDS011;8401;52.528;13.340;2022-10-23T09:27:54;5.60;;;3.80;;
16577;SDS011;8401;52.528;13.340;2022-10-23T09:30:26;5.95;;;3.97;;
16577;SDS011;8401;52.528;13.340;2022-10-23T09:38:36;7.72;;;4.22;;
16577;SDS011;8401;52.528;13.340;2022-10-23T09:43:39;7.28;;;4.25;;
16577;SDS011;8401;52.528;13.340;2022-10-23T09:46:05;7.72;;;5.05;;
16577;SDS011;8401;52.528;13.340;2022-10-23T09:48:32;9.88;;;3.97;;
16577;SDS011;8401;52.528;13.340;2022-10-23T09:50:59;6.65;;;4.22;;
16577;SDS011;8401;52.528;13.340;2022-10-23T09:53:34;10.13;;;4.38;;
16577;SDS011;8401;52.528;13.340;2022-10-23T09:56:04;6.03;;;3.70;;
16577;SDS011;8401;52.528;13.340;2022-10-23T09:59:33;6.95;;;4.20;;
16577;SDS011;8401;52.528;13.340;2022-10-23T10:01:44;7.40;;;3.83;;
16577;SDS011;8401;52.528;13.340;2022-10-23T10:04:11;6.57;;;3.78;;
16577;SDS011;8401;52.528;13.340;2022-10-23T10:06:37;7.85;;;3.78;;
16577;SDS011;8401;52.528;13.340;2022-10-23T10:09:11;6.47;;;3.50;;
16577;SDS011;8401;52.528;13.340;2022-10-23T10:25:40;4.35;;;2.30;;
16577;SDS011;8401;52.528;13.340;2022-10-23T10:31:45;8.32;;;2.92;;
16577;SDS011;8401;52.528;13.340;2022-10-23T10:37:16;4.80;;;2.38;;
16577;SDS011;8401;52.528;13.340;2022-10-23T10:50:54;5.05;;;2.00;;
16577;SDS011;8401;52.528;13.340;2022-10-23T10:56:07;6.70;;;1.98;;
16577;SDS011;8401;52.528;13.340;2022-10-23T10:58:49;14.82;;;2.72;;
16577;SDS011;8401;52.528;13.340;2022-10-23T11:01:29;6.15;;;2.63;;
16577;SDS011;8401;52.528;13.340;2022-10-23T11:04:13;4.15;;;2.22;;
16577;SDS011;8401;52.528;13.340;2022-10-23T11:07:06;3.50;;;2.20;;
16577;SDS011;8401;52.528;13.340;2022-10-23T11:09:35;3.70;;;2.70;;
16577;SDS011;8401;52.528;13.340;2022-10-23T11:12:03;5.78;;;2.97;;
16577;SDS011;8401;52.528;13.340;2022-10-23T11:14:30;5.50;;;2.45;;
16577;SDS011;8401;52.528;13.340;2022-10-23T11:17:02;5.15;;;2.42;;
16577;SDS011;8401;52.528;13.340;2022-10-23T11:20:04;9.05;;;3.85;;
16577;SDS011;8401;52.528;13.340;2022-10-23T11:23:00;5.03;;;2.15;;
16577;SDS011;8401;52.528;13.340;2022-10-23T11:28:41;4.28;;;2.47;;
16577;SDS011;8401;52.528;13.340;2022-10-23T11:31:35;8.82;;;3.20;;
16577;SDS011;8401;52.528;13.340;2022-10-23T11:34:23;6.80;;;2.40;;
16577;SDS011;8401;52.528;13.340;2022-10-23T11:36:59;6.45;;;3.80;;
16577;SDS011;8401;52.528;13.340;2022-10-23T11:39:28;4.65;;;2.38;;
16577;SDS011;8401;52.528;13.340;2022-10-23T11:41:56;4.35;;;2.50;;
16577;SDS011;8401;52.528;13.340;2022-10-23T11:44:38;3.00;;;1.70;;
16577;SDS011;8401;52.528;13.340;2022-10-23T11:50:10;6.20;;;3.20;;
16577;SDS011;8401;52.528;13.340;2022-10-23T11:52:39;5.07;;;2.65;;
16577;SDS011;8401;52.528;13.340;2022-10-23T11:55:18;4.32;;;1.80;;
16577;SDS011;8401;52.528;13.340;2022-10-23T12:00:29;4.72;;;2.50;;
16577;SDS011;8401;52.528;13.340;2022-10-23T12:02:55;5.25;;;2.08;;
16577;SDS011;8401;52.528;13.340;2022-10-23T12:05:37;4.47;;;2.00;;
16577;SDS011;8401;52.528;13.340;2022-10-23T12:08:18;4.40;;;2.30;;
16577;SDS011;8401;52.528;13.340;2022-10-23T12:10:47;5.35;;;2.58;;
16577;SDS011;8401;52.528;13.340;2022-10-23T12:16:14;3.65;;;2.53;;
16577;SDS011;8401;52.528;13.340;2022-10-23T12:18:44;4.72;;;2.35;;
16577;SDS011;8401;52.528;13.340;2022-10-23T12:21:18;6.68;;;2.17;;
16577;SDS011;8401;52.528;13.340;2022-10-23T12:23:51;3.47;;;2.05;;
16577;SDS011;8401;52.528;13.340;2022-10-23T12:26:43;4.35;;;1.45;;
16577;SDS011;8401;52.528;13.340;2022-10-23T12:29:27;5.47;;;1.83;;
16577;SDS011;8401;52.528;13.340;2022-10-23T12:40:50;4.90;;;1.80;;
16577;SDS011;8401;52.528;13.340;2022-10-23T12:45:51;3.55;;;1.55;;
16577;SDS011;8401;52.528;13.340;2022-10-23T12:48:18;3.55;;;1.63;;
16577;SDS011;8401;52.528;13.340;2022-10-23T12:50:51;4.88;;;1.90;;
16577;SDS011;8401;52.528;13.340;2022-10-23T12:53:20;2.42;;;1.58;;
16577;SDS011;8401;52.528;13.340;2022-10-23T12:55:48;2.97;;;1.33;;
16577;SDS011;8401;52.528;13.340;2022-10-23T12:58:20;3.33;;;1.73;;
16577;SDS011;8401;52.528;13.340;2022-10-23T13:00:54;5.38;;;1.98;;
16577;SDS011;8401;52.528;13.340;2022-10-23T13:03:23;3.70;;;2.00;;
16577;SDS011;8401;52.528;13.340;2022-10-23T13:05:50;2.88;;;1.55;;
16577;SDS011;8401;52.528;13.340;2022-10-23T13:08:17;5.78;;;1.63;;
16577;SDS011;8401;52.528;13.340;2022-10-23T13:10:45;6.22;;;1.77;;
16577;SDS011;8401;52.528;13.340;2022-10-23T13:13:12;4.13;;;1.95;;
16577;SDS011;8401;52.528;13.340;2022-10-23T13:15:41;4.85;;;2.80;;
16577;SDS011;8401;52.528;13.340;2022-10-23T13:18:09;5.10;;;2.53;;
16577;SDS011;8401;52.528;13.340;2022-10-23T13:20:40;4.38;;;2.53;;
16577;SDS011;8401;52.528;13.340;2022-10-23T13:23:17;3.97;;;1.98;;
16577;SDS011;8401;52.528;13.340;2022-10-23T13:25:56;6.32;;;2.97;;
16577;SDS011;8401;52.528;13.340;2022-10-23T13:33:37;5.95;;;2.42;;
16577;SDS011;8401;52.528;13.340;2022-10-23T13:38:43;5.50;;;2.15;;
16577;SDS011;8401;52.528;13.340;2022-10-23T13:41:34;5.53;;;2.53;;
16577;SDS011;8401;52.528;13.340;2022-10-23T13:44:04;4.60;;;2.50;;
16577;SDS011;8401;52.528;13.340;2022-10-23T13:46:30;6.30;;;2.63;;
16577;SDS011;8401;52.528;13.340;2022-10-23T13:48:56;6.10;;;2.65;;
16577;SDS011;8401;52.528;13.340;2022-10-23T13:51:26;4.35;;;2.13;;
16577;SDS011;8401;52.528;13.340;2022-10-23T13:53:52;5.95;;;2.20;;
16577;SDS011;8401;52.528;13.340;2022-10-23T13:56:20;4.32;;;2.08;;
16577;SDS011;8401;52.528;13.340;2022-10-23T13:58:47;3.22;;;2.22;;
16577;SDS011;8401;52.528;13.340;2022-10-23T14:01:20;8.00;;;2.60;;
16577;SDS011;8401;52.528;13.340;2022-10-23T14:03:53;5.20;;;2.00;;
16577;SDS011;8401;52.528;13.340;2022-10-23T14:06:20;5.32;;;2.40;;
16577;SDS011;8401;52.528;13.340;2022-10-23T14:08:46;3.95;;;1.90;;
16577;SDS011;8401;52.528;13.340;2022-10-23T14:11:12;3.80;;;2.05;;
16577;SDS011;8401;52.528;13.340;2022-10-23T14:13:39;7.70;;;4.53;;
16577;SDS011;8401;52.528;13.340;2022-10-23T14:16:05;4.25;;;3.03;;
16577;SDS011;8401;52.528;13.340;2022-10-23T14:18:32;3.88;;;1.75;;
16577;SDS011;8401;52.528;13.340;2022-10-23T14:21:01;4.03;;;1.70;;
16577;SDS011;8401;52.528;13.340;2022-10-23T14:23:28;3.58;;;1.85;;
16577;SDS011;8401;52.528;13.340;2022-10-23T14:26:00;4.03;;;2.10;;
16577;SDS011;8401;52.528;13.340;2022-10-23T14:28:27;3.60;;;2.13;;
16577;SDS011;8401;52.528;13.340;2022-10-23T14:30:52;2.55;;;1.75;;
16577;SDS011;8401;52.528;13.340;2022-10-23T14:33:18;4.22;;;2.50;;
16577;SDS011;8401;52.528;13.340;2022-10-23T14:35:43;2.88;;;1.80;;
16577;SDS011;8401;52.528;13.340;2022-10-23T14:38:09;4.97;;;1.95;;
16577;SDS011;8401;52.528;13.340;2022-10-23T14:40:37;2.83;;;1.70;;
16577;SDS011;8401;52.528;13.340;2022-10-23T14:43:03;7.63;;;2.97;;
16577;SDS011;8401;52.528;13.340;2022-10-23T14:45:32;4.32;;;1.90;;
16577;SDS011;8401;52.528;13.340;2022-10-23T14:47:57;5.85;;;1.88;;
16577;SDS011;8401;52.528;13.340;2022-10-23T14:50:25;6.47;;;2.05;;
16577;SDS011;8401;52.528;13.340;2022-10-23T14:52:51;5.57;;;1.88;;
16577;SDS011;8401;52.528;13.340;2022-10-23T14:55:16;4.30;;;1.80;;
16577;SDS011;8401;52.528;13.340;2022-10-23T14:57:42;5.63;;;2.20;;
16577;SDS011;8401;52.528;13.340;2022-10-23T15:00:08;3.67;;;1.95;;
16577;SDS011;8401;52.528;13.340;2022-10-23T15:02:35;5.13;;;2.10;;
16577;SDS011;8401;52.528;13.340;2022-10-23T15:05:00;3.97;;;2.00;;
16577;SDS011;8401;52.528;13.340;2022-10-23T15:07:26;4.80;;;2.42;;
16577;SDS011;8401;52.528;13.340;2022-10-23T15:09:52;4.88;;;1.80;;
16577;SDS011;8401;52.528;13.340;2022-10-23T15:12:17;3.28;;;1.80;;
16577;SDS011;8401;52.528;13.340;2022-10-23T15:14:43;5.15;;;1.90;;
16577;SDS011;8401;52.528;13.340;2022-10-23T15:17:08;4.75;;;2.63;;
16577;SDS011;8401;52.528;13.340;2022-10-23T15:19:34;5.28;;;2.17;;
16577;SDS011;8401;52.528;13.340;2022-10-23T15:22:00;5.97;;;2.63;;
16577;SDS011;8401;52.528;13.340;2022-10-23T15:24:25;4.05;;;2.13;;
16577;SDS011;8401;52.528;13.340;2022-10-23T15:26:51;3.65;;;2.33;;
16577;SDS011;8401;52.528;13.340;2022-10-23T15:29:17;6.95;;;2.63;;
16577;SDS011;8401;52.528;13.340;2022-10-23T15:31:52;5.55;;;2.22;;
16577;SDS011;8401;52.528;13.340;2022-10-23T15:34:22;3.90;;;2.40;;
16577;SDS011;8401;52.528;13.340;2022-10-23T15:36:49;7.25;;;3.58;;
16577;SDS011;8401;52.528;13.340;2022-10-23T15:39:17;6.20;;;2.83;;
16577;SDS011;8401;52.528;13.340;2022-10-23T15:41:45;5.47;;;3.07;;
16577;SDS011;8401;52.528;13.340;2022-10-23T15:44:13;5.10;;;2.60;;
16577;SDS011;8401;52.528;13.340;2022-10-23T15:46:40;3.30;;;2.78;;
16577;SDS011;8401;52.528;13.340;2022-10-23T15:49:06;6.80;;;3.00;;
16577;SDS011;8401;52.528;13.340;2022-10-23T15:51:32;5.47;;;2.50;;
16577;SDS011;8401;52.528;13.340;2022-10-23T15:53:58;6.47;;;2.90;;
16577;SDS011;8401;52.528;13.340;2022-10-23T15:56:24;7.23;;;3.13;;
16577;SDS011;8401;52.528;13.340;2022-10-23T15:58:50;7.07;;;2.97;;
16577;SDS011;8401;52.528;13.340;2022-10-23T16:01:15;7.27;;;3.00;;
16577;SDS011;8401;52.528;13.340;2022-10-23T16:03:41;4.37;;;2.83;;
16577;SDS011;8401;52.528;13.340;2022-10-23T16:06:09;5.93;;;2.73;;
16577;SDS011;8401;52.528;13.340;2022-10-23T16:08:35;8.57;;;3.63;;
16577;SDS011;8401;52.528;13.340;2022-10-23T16:11:02;8.57;;;3.20;;
16577;SDS011;8401;52.528;13.340;2022-10-23T16:13:28;4.83;;;2.90;;
16577;SDS011;8401;52.528;13.340;2022-10-23T16:15:54;5.47;;;3.00;;
16577;SDS011;8401;52.528;13.340;2022-10-23T16:18:20;5.40;;;3.20;;
16577;SDS011;8401;52.528;13.340;2022-10-23T16:20:46;5.60;;;2.60;;
16577;SDS011;8401;52.528;13.340;2022-10-23T16:23:14;6.03;;;2.77;;
16577;SDS011;8401;52.528;13.340;2022-10-23T16:25:40;6.90;;;3.90;;
16577;SDS011;8401;52.528;13.340;2022-10-23T16:28:05;4.53;;;2.93;;
16577;SDS011;8401;52.528;13.340;2022-10-23T16:30:31;5.80;;;2.97;;
16577;SDS011;8401;52.528;13.340;2022-10-23T16:32:57;7.23;;;2.80;;
16577;SDS011;8401;52.528;13.340;2022-10-23T16:35:22;5.93;;;3.13;;
16577;SDS011;8401;52.528;13.340;2022-10-23T16:37:48;6.77;;;3.60;;
16577;SDS011;8401;52.528;13.340;2022-10-23T16:40:14;9.87;;;4.03;;
16577;SDS011;8401;52.528;13.340;2022-10-23T16:42:40;7.20;;;3.10;;
16577;SDS011;8401;52.528;13.340;2022-10-23T16:45:08;5.03;;;3.30;;
16577;SDS011;8401;52.528;13.340;2022-10-23T16:47:34;3.97;;;2.90;;
16577;SDS011;8401;52.528;13.340;2022-10-23T16:50:00;4.20;;;3.10;;
16577;SDS011;8401;52.528;13.340;2022-10-23T16:52:26;8.17;;;3.77;;
16577;SDS011;8401;52.528;13.340;2022-10-23T16:54:52;7.67;;;3.67;;